DZA weather

Public forecast

Using degrees Celsius for public forecast. Weather courtesy of forecast.io.

Current aviation weather report (METAR) for Dzaoudzi Pamandzi International Airport

Retrieved 2020/08/12 12:00 UTC (2 minutes ago):

FMCZ 121200Z AUTO 15010KT CAVOK 27/18 Q1015 NOSIG

Aviation forecast (TAF) for Dzaoudzi Pamandzi International Airport

Retrieved 2020/08/12 12:15 UTC (0 seconds ago):

TAF FMCZ 121100Z 1212/1312 15012KT 9999 FEW026